sensor_id;sensor_type;location;lat;lon;timestamp;temperature;humidity
13113;DHT22;6622;49.752;6.100;2022-10-17T00:02:19;12.50;99.90
13113;DHT22;6622;49.752;6.100;2022-10-17T00:04:46;12.50;99.90
13113;DHT22;6622;49.752;6.100;2022-10-17T00:07:12;12.50;99.90
13113;DHT22;6622;49.752;6.100;2022-10-17T00:09:43;12.40;99.90
13113;DHT22;6622;49.752;6.100;2022-10-17T00:12:09;12.40;99.90
13113;DHT22;6622;49.752;6.100;2022-10-17T00:14:36;12.40;99.90
13113;DHT22;6622;49.752;6.100;2022-10-17T00:17:03;12.40;99.90
13113;DHT22;6622;49.752;6.100;2022-10-17T00:19:29;12.40;99.90
13113;DHT22;6622;49.752;6.100;2022-10-17T00:21:56;12.30;99.90
13113;DHT22;6622;49.752;6.100;2022-10-17T00:24:23;12.30;99.90
13113;DHT22;6622;49.752;6.100;2022-10-17T00:26:49;12.30;99.90
13113;DHT22;6622;49.752;6.100;2022-10-17T00:29:16;12.30;99.90
13113;DHT22;6622;49.752;6.100;2022-10-17T00:31:42;12.20;99.90
13113;DHT22;6622;49.752;6.100;2022-10-17T00:34:09;12.20;99.90
13113;DHT22;6622;49.752;6.100;2022-10-17T00:36:36;12.20;99.90
13113;DHT22;6622;49.752;6.100;2022-10-17T00:39:02;12.20;99.90
13113;DHT22;6622;49.752;6.100;2022-10-17T00:41:30;12.30;99.90
13113;DHT22;6622;49.752;6.100;2022-10-17T00:43:57;12.30;99.90
13113;DHT22;6622;49.752;6.100;2022-10-17T00:46:26;12.10;99.90
13113;DHT22;6622;49.752;6.100;2022-10-17T00:48:50;12.10;99.90
13113;DHT22;6622;49.752;6.100;2022-10-17T00:51:15;12.10;99.90
13113;DHT22;6622;49.752;6.100;2022-10-17T00:53:42;12.10;99.90
13113;DHT22;6622;49.752;6.100;2022-10-17T00:56:09;12.10;99.90
13113;DHT22;6622;49.752;6.100;2022-10-17T00:58:36;12.10;99.90
13113;DHT22;6622;49.752;6.100;2022-10-17T01:01:03;12.10;99.90
13113;DHT22;6622;49.752;6.100;2022-10-17T01:03:29;12.00;99.90
13113;DHT22;6622;49.752;6.100;2022-10-17T01:05:56;12.10;99.90
13113;DHT22;6622;49.752;6.100;2022-10-17T01:08:23;12.10;99.90
13113;DHT22;6622;49.752;6.100;2022-10-17T01:13:45;12.20;99.90
13113;DHT22;6622;49.752;6.100;2022-10-17T01:16:22;12.10;99.90
13113;DHT22;6622;49.752;6.100;2022-10-17T01:21:30;12.10;99.90
13113;DHT22;6622;49.752;6.100;2022-10-17T01:29:46;11.90;99.90
13113;DHT22;6622;49.752;6.100;2022-10-17T01:31:58;11.90;99.90
13113;DHT22;6622;49.752;6.100;2022-10-17T01:34:34;11.90;99.90
13113;DHT22;6622;49.752;6.100;2022-10-17T01:37:07;11.90;99.90
13113;DHT22;6622;49.752;6.100;2022-10-17T01:39:42;11.90;99.90
13113;DHT22;6622;49.752;6.100;2022-10-17T01:42:18;11.80;99.90
13113;DHT22;6622;49.752;6.100;2022-10-17T01:44:48;11.80;99.90
13113;DHT22;6622;49.752;6.100;2022-10-17T01:47:14;11.80;99.90
13113;DHT22;6622;49.752;6.100;2022-10-17T01:49:40;11.80;99.90
13113;DHT22;6622;49.752;6.100;2022-10-17T01:52:10;11.80;99.90
13113;DHT22;6622;49.752;6.100;2022-10-17T01:54:43;11.80;99.90
13113;DHT22;6622;49.752;6.100;2022-10-17T01:57:10;11.70;99.90
13113;DHT22;6622;49.752;6.100;2022-10-17T01:59:36;11.70;99.90
13113;DHT22;6622;49.752;6.100;2022-10-17T02:02:02;11.80;99.90
13113;DHT22;6622;49.752;6.100;2022-10-17T02:04:29;11.80;99.90
13113;DHT22;6622;49.752;6.100;2022-10-17T02:06:55;11.80;99.90
13113;DHT22;6622;49.752;6.100;2022-10-17T02:09:24;11.70;99.90
13113;DHT22;6622;49.752;6.100;2022-10-17T02:11:51;11.70;99.90
13113;DHT22;6622;49.752;6.100;2022-10-17T02:14:31;11.80;99.90
13113;DHT22;6622;49.752;6.100;2022-10-17T02:19:49;11.80;99.90
13113;DHT22;6622;49.752;6.100;2022-10-17T02:22:29;11.80;99.90
13113;DHT22;6622;49.752;6.100;2022-10-17T02:25:21;11.80;99.90
13113;DHT22;6622;49.752;6.100;2022-10-17T02:27:50;11.80;99.90
13113;DHT22;6622;49.752;6.100;2022-10-17T02:30:33;11.70;99.90
13113;DHT22;6622;49.752;6.100;2022-10-17T02:33:08;11.50;99.90
13113;DHT22;6622;49.752;6.100;2022-10-17T02:35:32;11.50;99.90
13113;DHT22;6622;49.752;6.100;2022-10-17T02:37:58;11.40;99.90
13113;DHT22;6622;49.752;6.100;2022-10-17T02:40:24;11.40;99.90
13113;DHT22;6622;49.752;6.100;2022-10-17T02:42:52;11.40;99.90
13113;DHT22;6622;49.752;6.100;2022-10-17T02:45:18;11.30;99.90
13113;DHT22;6622;49.752;6.100;2022-10-17T02:47:56;11.30;99.90
13113;DHT22;6622;49.752;6.100;2022-10-17T02:50:21;11.40;99.90
13113;DHT22;6622;49.752;6.100;2022-10-17T02:52:50;11.30;99.90
13113;DHT22;6622;49.752;6.100;2022-10-17T02:55:53;11.40;99.90
13113;DHT22;6622;49.752;6.100;2022-10-17T02:57:54;11.30;99.90
13113;DHT22;6622;49.752;6.100;2022-10-17T03:00:19;11.40;99.90
13113;DHT22;6622;49.752;6.100;2022-10-17T03:02:47;11.40;99.90
13113;DHT22;6622;49.752;6.100;2022-10-17T03:05:14;11.40;99.90
13113;DHT22;6622;49.752;6.100;2022-10-17T03:07:40;11.40;99.90
13113;DHT22;6622;49.752;6.100;2022-10-17T03:10:06;11.40;99.90
13113;DHT22;6622;49.752;6.100;2022-10-17T03:12:34;11.50;99.90
13113;DHT22;6622;49.752;6.100;2022-10-17T03:15:00;11.50;99.90
13113;DHT22;6622;49.752;6.100;2022-10-17T03:17:27;11.40;99.90
13113;DHT22;6622;49.752;6.100;2022-10-17T03:19:53;11.40;99.90
13113;DHT22;6622;49.752;6.100;2022-10-17T03:22:21;11.20;99.90
13113;DHT22;6622;49.752;6.100;2022-10-17T03:24:47;11.20;99.90
13113;DHT22;6622;49.752;6.100;2022-10-17T03:27:14;11.20;99.90
13113;DHT22;6622;49.752;6.100;2022-10-17T03:29:41;11.20;99.90
13113;DHT22;6622;49.752;6.100;2022-10-17T03:32:07;11.30;99.90
13113;DHT22;6622;49.752;6.100;2022-10-17T03:34:34;11.40;99.90
13113;DHT22;6622;49.752;6.100;2022-10-17T03:37:01;11.30;99.90
13113;DHT22;6622;49.752;6.100;2022-10-17T03:39:27;11.40;99.90
13113;DHT22;6622;49.752;6.100;2022-10-17T03:41:54;11.50;99.90
13113;DHT22;6622;49.752;6.100;2022-10-17T03:44:20;11.50;99.90
13113;DHT22;6622;49.752;6.100;2022-10-17T03:46:47;11.50;99.90
13113;DHT22;6622;49.752;6.100;2022-10-17T03:49:14;11.60;99.90
13113;DHT22;6622;49.752;6.100;2022-10-17T03:51:41;11.60;99.90
13113;DHT22;6622;49.752;6.100;2022-10-17T03:54:08;11.60;99.90
13113;DHT22;6622;49.752;6.100;2022-10-17T03:56:34;11.60;99.90
13113;DHT22;6622;49.752;6.100;2022-10-17T03:59:02;11.50;99.90
13113;DHT22;6622;49.752;6.100;2022-10-17T04:01:28;11.50;99.90
13113;DHT22;6622;49.752;6.100;2022-10-17T04:03:55;11.60;99.90
13113;DHT22;6622;49.752;6.100;2022-10-17T04:06:22;11.80;99.90
13113;DHT22;6622;49.752;6.100;2022-10-17T04:08:49;12.20;99.90
13113;DHT22;6622;49.752;6.100;2022-10-17T04:11:17;12.20;99.90
13113;DHT22;6622;49.752;6.100;2022-10-17T04:13:42;11.90;99.90
13113;DHT22;6622;49.752;6.100;2022-10-17T04:16:11;11.60;99.90
13113;DHT22;6622;49.752;6.100;2022-10-17T04:18:36;11.60;99.90
13113;DHT22;6622;49.752;6.100;2022-10-17T04:21:03;11.60;99.90
13113;DHT22;6622;49.752;6.100;2022-10-17T04:23:30;11.60;99.90
13113;DHT22;6622;49.752;6.100;2022-10-17T04:25:57;11.60;99.90
13113;DHT22;6622;49.752;6.100;2022-10-17T04:28:24;11.60;99.90
13113;DHT22;6622;49.752;6.100;2022-10-17T04:31:00;11.60;99.90
13113;DHT22;6622;49.752;6.100;2022-10-17T04:33:26;11.60;99.90
13113;DHT22;6622;49.752;6.100;2022-10-17T04:35:56;11.70;99.90
13113;DHT22;6622;49.752;6.100;2022-10-17T04:38:22;11.90;99.90
13113;DHT22;6622;49.752;6.100;2022-10-17T04:40:49;12.10;99.90
13113;DHT22;6622;49.752;6.100;2022-10-17T04:43:15;12.20;99.90
13113;DHT22;6622;49.752;6.100;2022-10-17T04:45:42;12.20;99.90
13113;DHT22;6622;49.752;6.100;2022-10-17T04:48:09;12.20;99.90
13113;DHT22;6622;49.752;6.100;2022-10-17T04:50:36;12.20;99.90
13113;DHT22;6622;49.752;6.100;2022-10-17T04:53:02;12.20;99.90
13113;DHT22;6622;49.752;6.100;2022-10-17T04:55:29;12.30;99.90
13113;DHT22;6622;49.752;6.100;2022-10-17T04:57:57;12.30;99.90
13113;DHT22;6622;49.752;6.100;2022-10-17T05:00:23;12.30;99.90
13113;DHT22;6622;49.752;6.100;2022-10-17T05:02:50;12.30;99.90
13113;DHT22;6622;49.752;6.100;2022-10-17T05:05:16;12.40;99.90
13113;DHT22;6622;49.752;6.100;2022-10-17T05:07:44;12.60;99.90
13113;DHT22;6622;49.752;6.100;2022-10-17T05:10:10;12.60;99.90
13113;DHT22;6622;49.752;6.100;2022-10-17T05:12:37;12.60;99.90
13113;DHT22;6622;49.752;6.100;2022-10-17T05:15:04;12.60;99.90
13113;DHT22;6622;49.752;6.100;2022-10-17T05:17:30;12.40;99.90
13113;DHT22;6622;49.752;6.100;2022-10-17T05:19:57;12.40;99.90
13113;DHT22;6622;49.752;6.100;2022-10-17T05:22:24;12.40;99.90
13113;DHT22;6622;49.752;6.100;2022-10-17T05:24:51;12.50;99.90
13113;DHT22;6622;49.752;6.100;2022-10-17T05:27:18;12.50;99.90
13113;DHT22;6622;49.752;6.100;2022-10-17T05:29:44;12.50;99.90
13113;DHT22;6622;49.752;6.100;2022-10-17T05:32:11;12.60;99.90
13113;DHT22;6622;49.752;6.100;2022-10-17T05:34:38;12.70;99.90
13113;DHT22;6622;49.752;6.100;2022-10-17T05:37:05;12.70;99.90
13113;DHT22;6622;49.752;6.100;2022-10-17T05:39:32;12.70;99.90
13113;DHT22;6622;49.752;6.100;2022-10-17T05:41:58;12.60;99.90
13113;DHT22;6622;49.752;6.100;2022-10-17T05:44:25;12.60;99.90
13113;DHT22;6622;49.752;6.100;2022-10-17T05:46:51;12.70;99.90
13113;DHT22;6622;49.752;6.100;2022-10-17T05:49:18;12.70;99.90
13113;DHT22;6622;49.752;6.100;2022-10-17T05:51:45;12.70;99.90
13113;DHT22;6622;49.752;6.100;2022-10-17T05:54:11;12.70;99.90
13113;DHT22;6622;49.752;6.100;2022-10-17T05:56:38;12.70;99.90
13113;DHT22;6622;49.752;6.100;2022-10-17T05:59:05;12.70;99.90
13113;DHT22;6622;49.752;6.100;2022-10-17T06:01:31;12.70;99.90
13113;DHT22;6622;49.752;6.100;2022-10-17T06:03:59;12.80;99.90
13113;DHT22;6622;49.752;6.100;2022-10-17T06:06:25;12.80;99.90
13113;DHT22;6622;49.752;6.100;2022-10-17T06:08:52;12.90;99.90
13113;DHT22;6622;49.752;6.100;2022-10-17T06:11:18;13.10;99.90
13113;DHT22;6622;49.752;6.100;2022-10-17T06:13:46;13.10;99.90
13113;DHT22;6622;49.752;6.100;2022-10-17T06:16:13;13.10;99.90
13113;DHT22;6622;49.752;6.100;2022-10-17T06:18:39;13.10;99.90
13113;DHT22;6622;49.752;6.100;2022-10-17T06:21:07;13.20;99.90
13113;DHT22;6622;49.752;6.100;2022-10-17T06:23:32;13.30;99.90
13113;DHT22;6622;49.752;6.100;2022-10-17T06:25:59;13.30;99.90
13113;DHT22;6622;49.752;6.100;2022-10-17T06:28:26;13.40;99.90
13113;DHT22;6622;49.752;6.100;2022-10-17T06:30:52;13.40;99.90
13113;DHT22;6622;49.752;6.100;2022-10-17T06:33:19;13.50;99.90
13113;DHT22;6622;49.752;6.100;2022-10-17T06:35:52;13.50;99.90
13113;DHT22;6622;49.752;6.100;2022-10-17T06:38:18;13.60;99.90
13113;DHT22;6622;49.752;6.100;2022-10-17T06:40:46;13.70;99.90
13113;DHT22;6622;49.752;6.100;2022-10-17T06:43:12;13.60;99.90
13113;DHT22;6622;49.752;6.100;2022-10-17T06:45:39;13.70;99.90
13113;DHT22;6622;49.752;6.100;2022-10-17T06:48:06;13.80;99.90
13113;DHT22;6622;49.752;6.100;2022-10-17T06:50:33;14.00;99.90
13113;DHT22;6622;49.752;6.100;2022-10-17T06:52:59;13.90;99.90
13113;DHT22;6622;49.752;6.100;2022-10-17T06:55:26;14.00;99.90
13113;DHT22;6622;49.752;6.100;2022-10-17T06:57:53;14.00;99.90
13113;DHT22;6622;49.752;6.100;2022-10-17T07:00:20;14.00;99.90
13113;DHT22;6622;49.752;6.100;2022-10-17T07:02:47;14.00;99.90
13113;DHT22;6622;49.752;6.100;2022-10-17T07:05:13;14.10;99.90
13113;DHT22;6622;49.752;6.100;2022-10-17T07:07:40;14.20;99.90
13113;DHT22;6622;49.752;6.100;2022-10-17T07:10:07;14.30;99.90
13113;DHT22;6622;49.752;6.100;2022-10-17T07:12:34;14.50;99.90
13113;DHT22;6622;49.752;6.100;2022-10-17T07:15:01;14.50;99.90
13113;DHT22;6622;49.752;6.100;2022-10-17T07:17:27;14.80;99.90
13113;DHT22;6622;49.752;6.100;2022-10-17T07:19:54;15.00;99.90
13113;DHT22;6622;49.752;6.100;2022-10-17T07:22:21;15.40;99.90
13113;DHT22;6622;49.752;6.100;2022-10-17T07:24:48;15.40;99.90
13113;DHT22;6622;49.752;6.100;2022-10-17T07:27:15;15.60;99.90
13113;DHT22;6622;49.752;6.100;2022-10-17T07:29:41;15.90;99.90
13113;DHT22;6622;49.752;6.100;2022-10-17T07:32:09;16.30;99.90
13113;DHT22;6622;49.752;6.100;2022-10-17T07:34:35;16.20;99.90
13113;DHT22;6622;49.752;6.100;2022-10-17T07:37:02;16.40;99.90
13113;DHT22;6622;49.752;6.100;2022-10-17T07:39:29;16.60;99.90
13113;DHT22;6622;49.752;6.100;2022-10-17T07:41:56;16.50;99.90
13113;DHT22;6622;49.752;6.100;2022-10-17T07:44:22;16.70;99.90
13113;DHT22;6622;49.752;6.100;2022-10-17T07:46:49;17.00;99.90
13113;DHT22;6622;49.752;6.100;2022-10-17T07:49:16;17.10;99.90
13113;DHT22;6622;49.752;6.100;2022-10-17T07:51:42;17.10;99.90
13113;DHT22;6622;49.752;6.100;2022-10-17T07:54:09;17.00;99.90
13113;DHT22;6622;49.752;6.100;2022-10-17T07:56:36;16.80;99.90
13113;DHT22;6622;49.752;6.100;2022-10-17T07:59:02;16.60;99.90
13113;DHT22;6622;49.752;6.100;2022-10-17T08:01:29;16.40;99.90
13113;DHT22;6622;49.752;6.100;2022-10-17T08:03:55;16.30;99.90
13113;DHT22;6622;49.752;6.100;2022-10-17T08:06:22;16.40;99.90
13113;DHT22;6622;49.752;6.100;2022-10-17T08:08:49;16.60;99.90
13113;DHT22;6622;49.752;6.100;2022-10-17T08:11:16;16.60;99.90
13113;DHT22;6622;49.752;6.100;2022-10-17T08:13:43;16.90;99.90
13113;DHT22;6622;49.752;6.100;2022-10-17T08:16:10;17.10;99.90
13113;DHT22;6622;49.752;6.100;2022-10-17T08:18:37;17.30;99.90
13113;DHT22;6622;49.752;6.100;2022-10-17T08:21:03;17.50;99.90
13113;DHT22;6622;49.752;6.100;2022-10-17T08:23:29;17.60;99.90
13113;DHT22;6622;49.752;6.100;2022-10-17T08:25:59;17.90;99.90
13113;DHT22;6622;49.752;6.100;2022-10-17T08:28:25;18.10;99.90
13113;DHT22;6622;49.752;6.100;2022-10-17T08:30:52;18.20;99.90
13113;DHT22;6622;49.752;6.100;2022-10-17T08:33:19;18.30;99.90
13113;DHT22;6622;49.752;6.100;2022-10-17T08:35:45;18.40;99.90
13113;DHT22;6622;49.752;6.100;2022-10-17T08:38:12;18.60;99.90
13113;DHT22;6622;49.752;6.100;2022-10-17T08:40:39;18.70;99.90
13113;DHT22;6622;49.752;6.100;2022-10-17T08:47:59;19.30;99.90
13113;DHT22;6622;49.752;6.100;2022-10-17T08:50:48;19.40;99.90
13113;DHT22;6622;49.752;6.100;2022-10-17T08:53:37;19.50;99.90
13113;DHT22;6622;49.752;6.100;2022-10-17T08:55:46;19.80;99.90
13113;DHT22;6622;49.752;6.100;2022-10-17T08:58:27;19.80;99.90
13113;DHT22;6622;49.752;6.100;2022-10-17T09:01:01;19.80;99.90
13113;DHT22;6622;49.752;6.100;2022-10-17T09:06:02;20.00;99.90
13113;DHT22;6622;49.752;6.100;2022-10-17T09:08:53;20.00;99.90
13113;DHT22;6622;49.752;6.100;2022-10-17T09:11:44;19.80;99.90
13113;DHT22;6622;49.752;6.100;2022-10-17T09:14:25;19.60;99.90
13113;DHT22;6622;49.752;6.100;2022-10-17T09:16:55;19.70;99.90
13113;DHT22;6622;49.752;6.100;2022-10-17T09:19:28;19.90;99.90
13113;DHT22;6622;49.752;6.100;2022-10-17T09:22:00;20.10;99.90
13113;DHT22;6622;49.752;6.100;2022-10-17T09:24:42;20.30;99.90
13113;DHT22;6622;49.752;6.100;2022-10-17T09:27:19;20.50;99.90
13113;DHT22;6622;49.752;6.100;2022-10-17T09:29:44;20.60;99.90
13113;DHT22;6622;49.752;6.100;2022-10-17T09:32:12;20.70;99.90
13113;DHT22;6622;49.752;6.100;2022-10-17T09:34:37;20.70;99.90
13113;DHT22;6622;49.752;6.100;2022-10-17T09:37:04;20.90;99.90
13113;DHT22;6622;49.752;6.100;2022-10-17T09:39:31;20.90;99.90
13113;DHT22;6622;49.752;6.100;2022-10-17T09:42:00;20.90;99.90
13113;DHT22;6622;49.752;6.100;2022-10-17T09:49:33;21.30;99.90
13113;DHT22;6622;49.752;6.100;2022-10-17T09:52:02;21.30;99.90
13113;DHT22;6622;49.752;6.100;2022-10-17T09:54:26;21.10;99.90
13113;DHT22;6622;49.752;6.100;2022-10-17T09:57:02;21.30;99.90
13113;DHT22;6622;49.752;6.100;2022-10-17T09:59:37;21.40;99.90
13113;DHT22;6622;49.752;6.100;2022-10-17T10:02:13;21.50;99.90
13113;DHT22;6622;49.752;6.100;2022-10-17T10:04:36;21.70;99.90
13113;DHT22;6622;49.752;6.100;2022-10-17T10:07:04;21.60;99.90
13113;DHT22;6622;49.752;6.100;2022-10-17T10:09:30;21.50;99.90
13113;DHT22;6622;49.752;6.100;2022-10-17T10:11:57;21.50;99.90
13113;DHT22;6622;49.752;6.100;2022-10-17T10:14:33;21.60;99.90
13113;DHT22;6622;49.752;6.100;2022-10-17T10:16:50;21.70;99.90
13113;DHT22;6622;49.752;6.100;2022-10-17T10:19:20;21.90;99.90
13113;DHT22;6622;49.752;6.100;2022-10-17T10:21:58;21.90;99.90
13113;DHT22;6622;49.752;6.100;2022-10-17T10:24:24;22.00;99.90
13113;DHT22;6622;49.752;6.100;2022-10-17T10:26:54;21.40;99.90
13113;DHT22;6622;49.752;6.100;2022-10-17T10:31:52;21.30;99.90
13113;DHT22;6622;49.752;6.100;2022-10-17T10:34:23;21.20;99.90
13113;DHT22;6622;49.752;6.100;2022-10-17T10:39:23;21.60;99.90
13113;DHT22;6622;49.752;6.100;2022-10-17T10:41:47;21.80;99.90
13113;DHT22;6622;49.752;6.100;2022-10-17T10:44:13;21.60;99.90
13113;DHT22;6622;49.752;6.100;2022-10-17T10:46:40;21.20;99.90
13113;DHT22;6622;49.752;6.100;2022-10-17T10:49:06;21.00;99.90
13113;DHT22;6622;49.752;6.100;2022-10-17T10:51:43;20.90;99.90
13113;DHT22;6622;49.752;6.100;2022-10-17T10:54:19;20.90;99.90
13113;DHT22;6622;49.752;6.100;2022-10-17T10:56:51;20.80;99.90
13113;DHT22;6622;49.752;6.100;2022-10-17T11:02:00;21.00;99.90
13113;DHT22;6622;49.752;6.100;2022-10-17T11:04:30;21.10;99.90
13113;DHT22;6622;49.752;6.100;2022-10-17T11:07:03;21.10;99.90
13113;DHT22;6622;49.752;6.100;2022-10-17T11:12:18;21.20;99.90
13113;DHT22;6622;49.752;6.100;2022-10-17T11:17:27;21.80;99.90
13113;DHT22;6622;49.752;6.100;2022-10-17T11:24:57;22.10;99.90
13113;DHT22;6622;49.752;6.100;2022-10-17T11:27:27;21.90;99.90
13113;DHT22;6622;49.752;6.100;2022-10-17T11:29:51;21.70;99.90
13113;DHT22;6622;49.752;6.100;2022-10-17T11:32:31;21.70;99.90
13113;DHT22;6622;49.752;6.100;2022-10-17T11:37:43;21.90;99.90
13113;DHT22;6622;49.752;6.100;2022-10-17T11:40:30;21.90;99.90
13113;DHT22;6622;49.752;6.100;2022-10-17T11:42:58;21.90;99.90
13113;DHT22;6622;49.752;6.100;2022-10-17T11:45:23;21.70;99.90
13113;DHT22;6622;49.752;6.100;2022-10-17T11:47:50;21.70;99.90
13113;DHT22;6622;49.752;6.100;2022-10-17T11:52:48;21.50;99.90
13113;DHT22;6622;49.752;6.100;2022-10-17T11:55:25;21.50;99.90
13113;DHT22;6622;49.752;6.100;2022-10-17T12:00:44;21.30;99.90
13113;DHT22;6622;49.752;6.100;2022-10-17T12:03:29;21.10;99.90
13113;DHT22;6622;49.752;6.100;2022-10-17T12:05:58;21.10;99.90
13113;DHT22;6622;49.752;6.100;2022-10-17T12:11:14;21.10;99.90
13113;DHT22;6622;49.752;6.100;2022-10-17T12:19:35;20.90;99.90
13113;DHT22;6622;49.752;6.100;2022-10-17T12:21:15;20.70;99.90
13113;DHT22;6622;49.752;6.100;2022-10-17T12:23:50;20.70;99.90
13113;DHT22;6622;49.752;6.100;2022-10-17T12:26:08;20.70;99.90
13113;DHT22;6622;49.752;6.100;2022-10-17T12:33:47;20.70;99.90
13113;DHT22;6622;49.752;6.100;2022-10-17T12:52:21;21.20;99.90
13113;DHT22;6622;49.752;6.100;2022-10-17T12:54:51;21.10;99.90
13113;DHT22;6622;49.752;6.100;2022-10-17T12:57:36;21.00;99.90
13113;DHT22;6622;49.752;6.100;2022-10-17T12:59:45;20.90;99.90
13113;DHT22;6622;49.752;6.100;2022-10-17T13:02:19;20.80;99.90
13113;DHT22;6622;49.752;6.100;2022-10-17T13:04:38;20.60;99.90
13113;DHT22;6622;49.752;6.100;2022-10-17T13:07:05;20.60;99.90
13113;DHT22;6622;49.752;6.100;2022-10-17T13:09:32;20.60;99.90
13113;DHT22;6622;49.752;6.100;2022-10-17T13:11:59;20.80;99.90
13113;DHT22;6622;49.752;6.100;2022-10-17T13:14:25;20.80;99.90
13113;DHT22;6622;49.752;6.100;2022-10-17T13:16:55;20.80;99.90
13113;DHT22;6622;49.752;6.100;2022-10-17T13:19:22;20.80;99.90
13113;DHT22;6622;49.752;6.100;2022-10-17T13:21:56;20.80;99.90
13113;DHT22;6622;49.752;6.100;2022-10-17T13:24:20;20.90;99.90
13113;DHT22;6622;49.752;6.100;2022-10-17T13:26:46;21.00;99.90
13113;DHT22;6622;49.752;6.100;2022-10-17T13:29:13;21.00;99.90
13113;DHT22;6622;49.752;6.100;2022-10-17T13:31:40;21.00;99.90
13113;DHT22;6622;49.752;6.100;2022-10-17T13:34:14;21.00;99.90
13113;DHT22;6622;49.752;6.100;2022-10-17T13:36:32;21.10;99.90
13113;DHT22;6622;49.752;6.100;2022-10-17T13:39:03;21.10;99.90
13113;DHT22;6622;49.752;6.100;2022-10-17T13:41:27;21.10;99.90
13113;DHT22;6622;49.752;6.100;2022-10-17T13:43:53;21.20;99.90
13113;DHT22;6622;49.752;6.100;2022-10-17T13:46:31;21.20;99.90
13113;DHT22;6622;49.752;6.100;2022-10-17T13:48:58;21.10;99.90
13113;DHT22;6622;49.752;6.100;2022-10-17T13:51:25;21.10;99.90
13113;DHT22;6622;49.752;6.100;2022-10-17T13:53:52;21.00;99.90
13113;DHT22;6622;49.752;6.100;2022-10-17T13:56:20;21.00;99.90
13113;DHT22;6622;49.752;6.100;2022-10-17T13:58:49;20.90;99.90
13113;DHT22;6622;49.752;6.100;2022-10-17T14:01:15;21.00;99.90
13113;DHT22;6622;49.752;6.100;2022-10-17T14:03:42;21.00;99.90
13113;DHT22;6622;49.752;6.100;2022-10-17T14:06:15;21.00;99.90
13113;DHT22;6622;49.752;6.100;2022-10-17T14:09:16;21.10;99.90
13113;DHT22;6622;49.752;6.100;2022-10-17T14:11:21;21.20;99.90
13113;DHT22;6622;49.752;6.100;2022-10-17T14:13:49;21.10;99.90
13113;DHT22;6622;49.752;6.100;2022-10-17T14:16:15;21.10;99.90
13113;DHT22;6622;49.752;6.100;2022-10-17T14:18:44;21.10;99.90
13113;DHT22;6622;49.752;6.100;2022-10-17T14:21:09;21.30;99.90
13113;DHT22;6622;49.752;6.100;2022-10-17T14:23:39;21.30;99.90
13113;DHT22;6622;49.752;6.100;2022-10-17T14:26:09;21.20;99.90
13113;DHT22;6622;49.752;6.100;2022-10-17T14:28:34;21.10;99.90
13113;DHT22;6622;49.752;6.100;2022-10-17T14:31:08;21.00;99.90
13113;DHT22;6622;49.752;6.100;2022-10-17T14:33:33;21.00;99.90
13113;DHT22;6622;49.752;6.100;2022-10-17T14:36:00;20.90;99.90
13113;DHT22;6622;49.752;6.100;2022-10-17T14:38:27;20.80;99.90
13113;DHT22;6622;49.752;6.100;2022-10-17T14:40:58;20.50;99.90
13113;DHT22;6622;49.752;6.100;2022-10-17T14:43:24;20.50;99.90
13113;DHT22;6622;49.752;6.100;2022-10-17T14:45:50;20.40;99.90
13113;DHT22;6622;49.752;6.100;2022-10-17T14:48:20;20.50;99.90
13113;DHT22;6622;49.752;6.100;2022-10-17T14:51:09;20.50;99.90
13113;DHT22;6622;49.752;6.100;2022-10-17T14:53:34;20.50;99.90
13113;DHT22;6622;49.752;6.100;2022-10-17T14:56:02;20.40;99.90
13113;DHT22;6622;49.752;6.100;2022-10-17T14:58:31;20.40;99.90
13113;DHT22;6622;49.752;6.100;2022-10-17T15:00:57;20.40;99.90
13113;DHT22;6622;49.752;6.100;2022-10-17T15:03:23;20.30;99.90
13113;DHT22;6622;49.752;6.100;2022-10-17T15:05:50;20.30;99.90
13113;DHT22;6622;49.752;6.100;2022-10-17T15:08:18;20.30;99.90
13113;DHT22;6622;49.752;6.100;2022-10-17T15:10:43;20.30;99.90
13113;DHT22;6622;49.752;6.100;2022-10-17T15:13:10;20.30;99.90
13113;DHT22;6622;49.752;6.100;2022-10-17T15:15:37;20.30;99.90
13113;DHT22;6622;49.752;6.100;2022-10-17T15:18:04;20.30;99.90
13113;DHT22;6622;49.752;6.100;2022-10-17T15:20:31;20.30;99.90
13113;DHT22;6622;49.752;6.100;2022-10-17T15:22:58;20.30;99.90
13113;DHT22;6622;49.752;6.100;2022-10-17T15:25:24;20.30;99.90
13113;DHT22;6622;49.752;6.100;2022-10-17T15:27:51;20.30;99.90
13113;DHT22;6622;49.752;6.100;2022-10-17T15:30:33;20.10;99.90
13113;DHT22;6622;49.752;6.100;2022-10-17T15:32:57;20.10;99.90
13113;DHT22;6622;49.752;6.100;2022-10-17T15:35:23;20.10;99.90
13113;DHT22;6622;49.752;6.100;2022-10-17T15:37:50;20.00;99.90
13113;DHT22;6622;49.752;6.100;2022-10-17T15:40:20;19.90;99.90
13113;DHT22;6622;49.752;6.100;2022-10-17T15:42:46;19.90;99.90
13113;DHT22;6622;49.752;6.100;2022-10-17T15:45:13;19.80;99.90
13113;DHT22;6622;49.752;6.100;2022-10-17T15:47:39;19.80;99.90
13113;DHT22;6622;49.752;6.100;2022-10-17T15:50:06;19.70;99.90
13113;DHT22;6622;49.752;6.100;2022-10-17T15:52:33;19.70;99.90
13113;DHT22;6622;49.752;6.100;2022-10-17T15:55:00;19.70;99.90
13113;DHT22;6622;49.752;6.100;2022-10-17T15:57:27;19.70;99.90
13113;DHT22;6622;49.752;6.100;2022-10-17T15:59:54;19.60;99.90
13113;DHT22;6622;49.752;6.100;2022-10-17T16:02:21;19.60;99.90
13113;DHT22;6622;49.752;6.100;2022-10-17T16:04:47;19.60;99.90
13113;DHT22;6622;49.752;6.100;2022-10-17T16:07:14;19.60;99.90
13113;DHT22;6622;49.752;6.100;2022-10-17T16:09:41;19.50;99.90
13113;DHT22;6622;49.752;6.100;2022-10-17T16:12:15;19.50;99.90
13113;DHT22;6622;49.752;6.100;2022-10-17T16:14:37;19.50;99.90
13113;DHT22;6622;49.752;6.100;2022-10-17T16:17:04;19.40;99.90
13113;DHT22;6622;49.752;6.100;2022-10-17T16:19:31;19.40;99.90
13113;DHT22;6622;49.752;6.100;2022-10-17T16:21:57;19.40;99.90
13113;DHT22;6622;49.752;6.100;2022-10-17T16:24:24;19.30;99.90
13113;DHT22;6622;49.752;6.100;2022-10-17T16:26:50;19.30;99.90
13113;DHT22;6622;49.752;6.100;2022-10-17T16:29:17;19.20;99.90
13113;DHT22;6622;49.752;6.100;2022-10-17T16:31:44;19.10;99.90
13113;DHT22;6622;49.752;6.100;2022-10-17T16:34:12;19.10;99.90
13113;DHT22;6622;49.752;6.100;2022-10-17T16:36:38;19.10;99.90
13113;DHT22;6622;49.752;6.100;2022-10-17T16:39:05;19.10;99.90
13113;DHT22;6622;49.752;6.100;2022-10-17T16:41:35;19.00;99.90
13113;DHT22;6622;49.752;6.100;2022-10-17T16:44:03;19.00;99.90
13113;DHT22;6622;49.752;6.100;2022-10-17T16:46:28;19.00;99.90
13113;DHT22;6622;49.752;6.100;2022-10-17T16:48:54;19.00;99.90
13113;DHT22;6622;49.752;6.100;2022-10-17T16:51:21;18.90;99.90
13113;DHT22;6622;49.752;6.100;2022-10-17T16:53:48;18.90;99.90
13113;DHT22;6622;49.752;6.100;2022-10-17T16:56:16;18.80;99.90
13113;DHT22;6622;49.752;6.100;2022-10-17T16:58:41;18.70;99.90
13113;DHT22;6622;49.752;6.100;2022-10-17T17:01:10;18.70;99.90
13113;DHT22;6622;49.752;6.100;2022-10-17T17:03:38;18.70;99.90
13113;DHT22;6622;49.752;6.100;2022-10-17T17:06:04;18.60;99.90
13113;DHT22;6622;49.752;6.100;2022-10-17T17:08:31;18.60;99.90
13113;DHT22;6622;49.752;6.100;2022-10-17T17:10:57;18.50;99.90
13113;DHT22;6622;49.752;6.100;2022-10-17T17:13:24;18.50;99.90